sensor_id;sensor_type;location;lat;lon;timestamp;pressure;altitude;pressure_sealevel;temperature;humidity
72950;BME280;64868;45.710;9.590;2023-04-19T00:00:38;99039.50;;;11.40;56.76
72950;BME280;64868;45.710;9.590;2023-04-19T00:03:08;99046.50;;;11.44;57.30
72950;BME280;64868;45.710;9.590;2023-04-19T00:05:41;99000.81;;;11.11;57.36
72950;BME280;64868;45.710;9.590;2023-04-19T00:08:11;99009.13;;;11.20;57.40
72950;BME280;64868;45.710;9.590;2023-04-19T00:10:43;99030.50;;;11.51;56.05
72950;BME280;64868;45.710;9.590;2023-04-19T00:13:13;99055.25;;;11.60;56.90
72950;BME280;64868;45.710;9.590;2023-04-19T00:15:46;99025.41;;;11.22;57.67
72950;BME280;64868;45.710;9.590;2023-04-19T00:18:19;99011.94;;;11.08;57.18
72950;BME280;64868;45.710;9.590;2023-04-19T00:20:49;99041.16;;;11.18;58.92
72950;BME280;64868;45.710;9.590;2023-04-19T00:23:21;99018.09;;;11.23;57.23
72950;BME280;64868;45.710;9.590;2023-04-19T00:25:54;98993.66;;;10.97;57.52
72950;BME280;64868;45.710;9.590;2023-04-19T00:28:27;99019.84;;;11.24;58.06
72950;BME280;64868;45.710;9.590;2023-04-19T00:30:59;99016.19;;;11.12;58.16
72950;BME280;64868;45.710;9.590;2023-04-19T00:33:30;99007.97;;;10.88;57.79
72950;BME280;64868;45.710;9.590;2023-04-19T00:36:03;99005.53;;;10.96;58.73
72950;BME280;64868;45.710;9.590;2023-04-19T00:38:36;99019.19;;;10.96;58.44
72950;BME280;64868;45.710;9.590;2023-04-19T00:41:06;98983.44;;;10.88;58.13
72950;BME280;64868;45.710;9.590;2023-04-19T00:43:36;99025.50;;;10.96;57.96
72950;BME280;64868;45.710;9.590;2023-04-19T00:46:09;99015.75;;;11.05;58.11
72950;BME280;64868;45.710;9.590;2023-04-19T00:48:39;99018.38;;;11.07;57.65
72950;BME280;64868;45.710;9.590;2023-04-19T00:51:09;98978.94;;;10.87;57.16
72950;BME280;64868;45.710;9.590;2023-04-19T00:53:42;99037.13;;;11.11;57.51
72950;BME280;64868;45.710;9.590;2023-04-19T00:56:13;99030.91;;;11.09;57.91
72950;BME280;64868;45.710;9.590;2023-04-19T00:58:41;98992.78;;;10.96;56.74
72950;BME280;64868;45.710;9.590;2023-04-19T01:01:13;99032.47;;;11.01;57.38
72950;BME280;64868;45.710;9.590;2023-04-19T01:03:46;99023.94;;;11.05;57.83
72950;BME280;64868;45.710;9.590;2023-04-19T01:06:19;98985.75;;;10.81;57.36
72950;BME280;64868;45.710;9.590;2023-04-19T01:08:51;99011.44;;;10.90;58.43
72950;BME280;64868;45.710;9.590;2023-04-19T01:11:22;99013.44;;;11.12;57.64
72950;BME280;64868;45.710;9.590;2023-04-19T01:13:53;99029.00;;;10.99;57.79
72950;BME280;64868;45.710;9.590;2023-04-19T01:16:21;98985.72;;;10.57;58.58
72950;BME280;64868;45.710;9.590;2023-04-19T01:18:49;98999.19;;;10.71;57.98
72950;BME280;64868;45.710;9.590;2023-04-19T01:21:20;99004.41;;;10.75;57.76
72950;BME280;64868;45.710;9.590;2023-04-19T01:23:51;99021.19;;;10.81;58.35
72950;BME280;64868;45.710;9.590;2023-04-19T01:26:24;99013.28;;;10.65;59.00
72950;BME280;64868;45.710;9.590;2023-04-19T01:28:51;99019.22;;;10.83;57.71
72950;BME280;64868;45.710;9.590;2023-04-19T01:31:21;98997.44;;;10.70;58.83
72950;BME280;64868;45.710;9.590;2023-04-19T01:33:54;99013.31;;;10.89;57.77
72950;BME280;64868;45.710;9.590;2023-04-19T01:36:24;98972.00;;;10.46;58.51
72950;BME280;64868;45.710;9.590;2023-04-19T01:38:55;99015.44;;;10.73;58.85
72950;BME280;64868;45.710;9.590;2023-04-19T01:41:22;98977.97;;;10.51;58.58
72950;BME280;64868;45.710;9.590;2023-04-19T01:43:55;98924.69;;;10.21;58.65
72950;BME280;64868;45.710;9.590;2023-04-19T01:46:25;98968.31;;;10.34;58.93
72950;BME280;64868;45.710;9.590;2023-04-19T01:48:56;98975.28;;;10.38;59.05
72950;BME280;64868;45.710;9.590;2023-04-19T01:51:26;98993.34;;;10.52;58.83
72950;BME280;64868;45.710;9.590;2023-04-19T01:53:58;98989.41;;;10.56;58.15
72950;BME280;64868;45.710;9.590;2023-04-19T01:56:31;98986.72;;;10.43;59.46
72950;BME280;64868;45.710;9.590;2023-04-19T01:59:03;98995.97;;;10.54;59.15
72950;BME280;64868;45.710;9.590;2023-04-19T02:01:34;98991.72;;;10.50;59.46
72950;BME280;64868;45.710;9.590;2023-04-19T02:04:07;98957.00;;;10.28;58.81
72950;BME280;64868;45.710;9.590;2023-04-19T02:06:34;98963.75;;;10.35;59.55
72950;BME280;64868;45.710;9.590;2023-04-19T02:09:05;98946.09;;;10.28;59.03
72950;BME280;64868;45.710;9.590;2023-04-19T02:11:37;98939.09;;;10.23;58.72
72950;BME280;64868;45.710;9.590;2023-04-19T02:14:07;98955.53;;;10.22;58.83
72950;BME280;64868;45.710;9.590;2023-04-19T02:16:37;98966.91;;;10.29;58.98
72950;BME280;64868;45.710;9.590;2023-04-19T02:19:10;98968.75;;;10.28;59.36
72950;BME280;64868;45.710;9.590;2023-04-19T02:21:40;98936.38;;;10.11;59.36
72950;BME280;64868;45.710;9.590;2023-04-19T02:24:13;98978.31;;;10.34;59.56
72950;BME280;64868;45.710;9.590;2023-04-19T02:26:46;98983.13;;;10.43;59.76
72950;BME280;64868;45.710;9.590;2023-04-19T02:29:18;98965.56;;;10.21;59.73
72950;BME280;64868;45.710;9.590;2023-04-19T02:31:48;98963.84;;;10.20;59.38
72950;BME280;64868;45.710;9.590;2023-04-19T02:34:18;98948.69;;;10.04;59.86
72950;BME280;64868;45.710;9.590;2023-04-19T02:36:51;98938.03;;;10.01;59.98
72950;BME280;64868;45.710;9.590;2023-04-19T02:39:23;98954.47;;;10.12;59.86
72950;BME280;64868;45.710;9.590;2023-04-19T02:41:54;98880.22;;;9.71;59.75
72950;BME280;64868;45.710;9.590;2023-04-19T02:44:22;98945.53;;;10.10;60.31
72950;BME280;64868;45.710;9.590;2023-04-19T02:46:53;98951.41;;;10.16;59.56
72950;BME280;64868;45.710;9.590;2023-04-19T02:49:26;98951.31;;;10.05;60.03
72950;BME280;64868;45.710;9.590;2023-04-19T02:51:56;98921.03;;;9.84;59.69
72950;BME280;64868;45.710;9.590;2023-04-19T02:54:29;98924.53;;;9.86;60.12
72950;BME280;64868;45.710;9.590;2023-04-19T02:57:02;98944.25;;;9.90;60.66
72950;BME280;64868;45.710;9.590;2023-04-19T02:59:35;98934.66;;;9.97;59.62
72950;BME280;64868;45.710;9.590;2023-04-19T03:02:07;98954.78;;;10.07;59.43
72950;BME280;64868;45.710;9.590;2023-04-19T03:04:35;98978.88;;;10.13;59.75
72950;BME280;64868;45.710;9.590;2023-04-19T03:07:07;98934.34;;;9.89;59.96
72950;BME280;64868;45.710;9.590;2023-04-19T03:09:40;98970.50;;;10.16;59.10
72950;BME280;64868;45.710;9.590;2023-04-19T03:12:08;98939.78;;;10.02;60.18
72950;BME280;64868;45.710;9.590;2023-04-19T03:14:36;98960.72;;;10.27;58.57
72950;BME280;64868;45.710;9.590;2023-04-19T03:17:08;98950.44;;;10.05;59.81
72950;BME280;64868;45.710;9.590;2023-04-19T03:19:40;98962.19;;;10.18;59.45
72950;BME280;64868;45.710;9.590;2023-04-19T03:22:10;98957.09;;;10.01;59.83
72950;BME280;64868;45.710;9.590;2023-04-19T03:24:43;98906.78;;;9.81;60.13
72950;BME280;64868;45.710;9.590;2023-04-19T03:27:16;98930.63;;;9.90;59.84
72950;BME280;64868;45.710;9.590;2023-04-19T03:29:48;98944.47;;;9.87;60.31
72950;BME280;64868;45.710;9.590;2023-04-19T03:32:21;98921.91;;;9.72;60.15
72950;BME280;64868;45.710;9.590;2023-04-19T03:34:51;98895.59;;;9.60;59.79
72950;BME280;64868;45.710;9.590;2023-04-19T03:37:19;98940.22;;;9.83;60.71
72950;BME280;64868;45.710;9.590;2023-04-19T03:39:51;98912.69;;;9.74;60.07
72950;BME280;64868;45.710;9.590;2023-04-19T03:42:21;98901.88;;;9.60;60.29
72950;BME280;64868;45.710;9.590;2023-04-19T03:44:52;98956.88;;;9.91;60.39
72950;BME280;64868;45.710;9.590;2023-04-19T03:47:24;98901.44;;;9.54;61.16
72950;BME280;64868;45.710;9.590;2023-04-19T03:49:55;98954.81;;;9.82;61.08
72950;BME280;64868;45.710;9.590;2023-04-19T03:52:25;98891.22;;;9.44;60.91
72950;BME280;64868;45.710;9.590;2023-04-19T03:54:55;98943.69;;;9.72;61.08
72950;BME280;64868;45.710;9.590;2023-04-19T03:57:27;98943.94;;;9.82;60.79
72950;BME280;64868;45.710;9.590;2023-04-19T04:00:01;98951.53;;;9.77;61.12
72950;BME280;64868;45.710;9.590;2023-04-19T04:02:38;98937.91;;;9.77;60.52
72950;BME280;64868;45.710;9.590;2023-04-19T04:05:10;98950.34;;;9.93;60.08
72950;BME280;64868;45.710;9.590;2023-04-19T04:07:43;98950.13;;;9.84;60.51
72950;BME280;64868;45.710;9.590;2023-04-19T04:10:15;98910.25;;;9.57;60.30
72950;BME280;64868;45.710;9.590;2023-04-19T04:12:48;98946.31;;;9.73;61.06
72950;BME280;64868;45.710;9.590;2023-04-19T04:15:21;98933.16;;;9.67;61.08
72950;BME280;64868;45.710;9.590;2023-04-19T04:17:51;98942.72;;;9.73;61.07
72950;BME280;64868;45.710;9.590;2023-04-19T04:20:22;98924.31;;;9.77;60.06
72950;BME280;64868;45.710;9.590;2023-04-19T04:22:52;98910.91;;;9.61;60.76
72950;BME280;64868;45.710;9.590;2023-04-19T04:25:22;98931.28;;;9.81;61.10
72950;BME280;64868;45.710;9.590;2023-04-19T04:27:52;98935.31;;;9.75;60.67
72950;BME280;64868;45.710;9.590;2023-04-19T04:30:22;98904.91;;;9.43;61.13
72950;BME280;64868;45.710;9.590;2023-04-19T04:32:48;98869.34;;;9.33;60.59
72950;BME280;64868;45.710;9.590;2023-04-19T04:35:20;98919.53;;;9.67;60.81
72950;BME280;64868;45.710;9.590;2023-04-19T04:37:50;98932.38;;;9.78;59.90
72950;BME280;64868;45.710;9.590;2023-04-19T04:40:20;98950.88;;;9.98;60.21
72950;BME280;64868;45.710;9.590;2023-04-19T04:42:50;98908.84;;;9.77;59.91
72950;BME280;64868;45.710;9.590;2023-04-19T04:45:23;98913.41;;;9.77;59.63
72950;BME280;64868;45.710;9.590;2023-04-19T04:47:55;98929.78;;;9.89;59.39
72950;BME280;64868;45.710;9.590;2023-04-19T04:50:25;98957.22;;;10.12;59.35
72950;BME280;64868;45.710;9.590;2023-04-19T04:52:53;98927.16;;;10.01;59.57
72950;BME280;64868;45.710;9.590;2023-04-19T04:55:25;98852.91;;;9.60;59.37
72950;BME280;64868;45.710;9.590;2023-04-19T04:57:56;98883.47;;;9.89;59.41
72950;BME280;64868;45.710;9.590;2023-04-19T05:00:26;98948.81;;;10.28;59.04
72950;BME280;64868;45.710;9.590;2023-04-19T05:02:56;98913.16;;;10.18;58.26
72950;BME280;64868;45.710;9.590;2023-04-19T05:05:29;98930.47;;;10.30;59.13
72950;BME280;64868;45.710;9.590;2023-04-19T05:07:56;98948.03;;;10.38;58.83
72950;BME280;64868;45.710;9.590;2023-04-19T05:10:27;98903.91;;;10.20;58.42
72950;BME280;64868;45.710;9.590;2023-04-19T05:12:59;98912.19;;;10.32;58.20
72950;BME280;64868;45.710;9.590;2023-04-19T05:15:29;98923.97;;;10.56;57.90
72950;BME280;64868;45.710;9.590;2023-04-19T05:18:00;98920.69;;;10.64;57.60
72950;BME280;64868;45.710;9.590;2023-04-19T05:20:30;98929.69;;;10.77;56.29
72950;BME280;64868;45.710;9.590;2023-04-19T05:22:58;98939.22;;;10.95;56.99
72950;BME280;64868;45.710;9.590;2023-04-19T05:25:29;98943.69;;;10.96;56.27
72950;BME280;64868;45.710;9.590;2023-04-19T05:28:00;98940.88;;;11.09;56.69
72950;BME280;64868;45.710;9.590;2023-04-19T05:30:32;98897.31;;;10.96;55.82
72950;BME280;64868;45.710;9.590;2023-04-19T05:33:05;98875.47;;;10.96;56.10
72950;BME280;64868;45.710;9.590;2023-04-19T05:35:35;98890.06;;;11.19;55.08
72950;BME280;64868;45.710;9.590;2023-04-19T05:38:08;98927.13;;;11.46;54.17
72950;BME280;64868;45.710;9.590;2023-04-19T05:40:35;98889.34;;;11.29;54.36
72950;BME280;64868;45.710;9.590;2023-04-19T05:43:06;98913.72;;;11.54;54.49
72950;BME280;64868;45.710;9.590;2023-04-19T05:45:36;98900.88;;;11.67;53.35
72950;BME280;64868;45.710;9.590;2023-04-19T05:48:08;98933.94;;;11.87;53.96
72950;BME280;64868;45.710;9.590;2023-04-19T05:50:41;98914.59;;;11.90;53.59
72950;BME280;64868;45.710;9.590;2023-04-19T05:53:11;98931.94;;;12.00;53.79
72950;BME280;64868;45.710;9.590;2023-04-19T05:55:44;98870.06;;;11.77;52.66
72950;BME280;64868;45.710;9.590;2023-04-19T05:58:17;98907.38;;;12.00;52.54
72950;BME280;64868;45.710;9.590;2023-04-19T06:00:44;98935.47;;;12.25;52.28
72950;BME280;64868;45.710;9.590;2023-04-19T06:03:12;98908.38;;;12.10;51.95
72950;BME280;64868;45.710;9.590;2023-04-19T06:05:42;98938.56;;;12.31;51.93
72950;BME280;64868;45.710;9.590;2023-04-19T06:08:15;98915.56;;;12.34;51.80
72950;BME280;64868;45.710;9.590;2023-04-19T06:10:47;98917.53;;;12.54;50.86
72950;BME280;64868;45.710;9.590;2023-04-19T06:13:16;98930.66;;;12.72;51.19
72950;BME280;64868;45.710;9.590;2023-04-19T06:15:47;98925.31;;;12.70;51.94
72950;BME280;64868;45.710;9.590;2023-04-19T06:18:20;98928.25;;;12.89;50.30
72950;BME280;64868;45.710;9.590;2023-04-19T06:20:51;98916.34;;;12.79;50.77
72950;BME280;64868;45.710;9.590;2023-04-19T06:23:23;98876.34;;;13.31;49.43
72950;BME280;64868;45.710;9.590;2023-04-19T06:25:56;98923.22;;;20.57;33.68
72950;BME280;64868;45.710;9.590;2023-04-19T06:28:28;98917.84;;;24.50;26.02
72950;BME280;64868;45.710;9.590;2023-04-19T06:31:01;98945.28;;;26.97;23.37
72950;BME280;64868;45.710;9.590;2023-04-19T06:33:31;98955.41;;;28.26;21.53
72950;BME280;64868;45.710;9.590;2023-04-19T06:36:02;98957.50;;;29.42;19.44
72950;BME280;64868;45.710;9.590;2023-04-19T06:38:34;98948.03;;;29.25;19.80
72950;BME280;64868;45.710;9.590;2023-04-19T06:41:04;98940.94;;;28.97;19.79
72950;BME280;64868;45.710;9.590;2023-04-19T06:43:30;98900.56;;;29.95;18.85
72950;BME280;64868;45.710;9.590;2023-04-19T06:46:01;98962.59;;;31.36;17.19
72950;BME280;64868;45.710;9.590;2023-04-19T06:48:31;98945.75;;;32.22;16.48
72950;BME280;64868;45.710;9.590;2023-04-19T06:51:04;98955.63;;;31.79;17.55
72950;BME280;64868;45.710;9.590;2023-04-19T06:53:34;98940.44;;;32.09;15.75
72950;BME280;64868;45.710;9.590;2023-04-19T06:56:06;98946.28;;;32.36;16.12
72950;BME280;64868;45.710;9.590;2023-04-19T06:58:36;98938.31;;;33.61;14.84
72950;BME280;64868;45.710;9.590;2023-04-19T07:01:09;98944.69;;;34.22;15.15
72950;BME280;64868;45.710;9.590;2023-04-19T07:03:39;98929.03;;;34.14;14.27
72950;BME280;64868;45.710;9.590;2023-04-19T07:06:10;98932.94;;;33.86;14.58
72950;BME280;64868;45.710;9.590;2023-04-19T07:08:40;98946.50;;;34.06;15.04
72950;BME280;64868;45.710;9.590;2023-04-19T07:11:10;98910.25;;;34.35;14.01
72950;BME280;64868;45.710;9.590;2023-04-19T07:13:40;98929.91;;;34.79;14.42
72950;BME280;64868;45.710;9.590;2023-04-19T07:16:10;98927.16;;;35.37;13.73
72950;BME280;64868;45.710;9.590;2023-04-19T07:18:41;98940.53;;;36.15;13.18
72950;BME280;64868;45.710;9.590;2023-04-19T07:21:11;98939.63;;;37.47;12.31
72950;BME280;64868;45.710;9.590;2023-04-19T07:23:41;98937.47;;;38.67;11.66
72950;BME280;64868;45.710;9.590;2023-04-19T07:26:14;98939.81;;;38.94;11.11
72950;BME280;64868;45.710;9.590;2023-04-19T07:28:46;98921.41;;;38.08;11.55
72950;BME280;64868;45.710;9.590;2023-04-19T07:31:22;98913.50;;;38.39;11.77
72950;BME280;64868;45.710;9.590;2023-04-19T07:33:55;98936.38;;;41.34;9.87
72950;BME280;64868;45.710;9.590;2023-04-19T07:36:25;98918.59;;;39.05;11.36
72950;BME280;64868;45.710;9.590;2023-04-19T07:38:57;98941.50;;;39.96;10.80
72950;BME280;64868;45.710;9.590;2023-04-19T07:41:28;98933.91;;;41.00;10.35
72950;BME280;64868;45.710;9.590;2023-04-19T07:43:58;98930.03;;;41.92;9.46
72950;BME280;64868;45.710;9.590;2023-04-19T07:46:28;98939.59;;;41.60;9.75
72950;BME280;64868;45.710;9.590;2023-04-19T07:48:58;98901.97;;;39.84;10.10
72950;BME280;64868;45.710;9.590;2023-04-19T07:51:23;98907.22;;;39.53;10.50
72950;BME280;64868;45.710;9.590;2023-04-19T07:53:54;98885.06;;;37.19;11.96
72950;BME280;64868;45.710;9.590;2023-04-19T07:56:22;98923.47;;;36.04;12.99
72950;BME280;64868;45.710;9.590;2023-04-19T07:58:54;98895.03;;;38.65;10.68
72950;BME280;64868;45.710;9.590;2023-04-19T08:01:23;98907.25;;;37.87;11.90
72950;BME280;64868;45.710;9.590;2023-04-19T08:03:54;98907.59;;;38.25;11.59
72950;BME280;64868;45.710;9.590;2023-04-19T08:06:27;98912.06;;;37.32;11.76
72950;BME280;64868;45.710;9.590;2023-04-19T08:08:59;98895.94;;;36.36;12.80
72950;BME280;64868;45.710;9.590;2023-04-19T08:11:30;98916.72;;;39.20;10.89
72950;BME280;64868;45.710;9.590;2023-04-19T08:14:00;98903.31;;;37.78;11.91
72950;BME280;64868;45.710;9.590;2023-04-19T08:16:30;98904.28;;;38.13;11.93
72950;BME280;64868;45.710;9.590;2023-04-19T08:19:02;98893.88;;;38.66;11.45
72950;BME280;64868;45.710;9.590;2023-04-19T08:21:35;98915.91;;;38.90;11.22
72950;BME280;64868;45.710;9.590;2023-04-19T08:24:08;98916.72;;;38.22;11.63
72950;BME280;64868;45.710;9.590;2023-04-19T08:26:39;98917.72;;;37.37;12.35
72950;BME280;64868;45.710;9.590;2023-04-19T08:29:09;98922.09;;;38.97;11.04
72950;BME280;64868;45.710;9.590;2023-04-19T08:31:42;98908.91;;;38.43;11.29
72950;BME280;64868;45.710;9.590;2023-04-19T08:34:09;98875.53;;;36.49;12.69
72950;BME280;64868;45.710;9.590;2023-04-19T08:36:42;98915.28;;;39.22;10.60
72950;BME280;64868;45.710;9.590;2023-04-19T08:39:15;98900.53;;;38.17;11.37
72950;BME280;64868;45.710;9.590;2023-04-19T08:41:42;98889.09;;;38.62;11.24
72950;BME280;64868;45.710;9.590;2023-04-19T08:44:11;98902.69;;;37.96;11.79
72950;BME280;64868;45.710;9.590;2023-04-19T08:46:42;98885.13;;;36.89;12.14
72950;BME280;64868;45.710;9.590;2023-04-19T08:49:15;98880.66;;;37.63;11.95
72950;BME280;64868;45.710;9.590;2023-04-19T08:51:47;98880.84;;;40.23;10.59
72950;BME280;64868;45.710;9.590;2023-04-19T08:54:21;98860.88;;;39.61;10.63
72950;BME280;64868;45.710;9.590;2023-04-19T08:56:54;98799.09;;;38.21;11.24
72950;BME280;64868;45.710;9.590;2023-04-19T08:59:25;98869.03;;;31.91;17.29
72950;BME280;64868;45.710;9.590;2023-04-19T09:01:53;98824.38;;;24.47;26.07
72950;BME280;64868;45.710;9.590;2023-04-19T09:04:23;98815.28;;;22.61;30.05
72950;BME280;64868;45.710;9.590;2023-04-19T09:06:53;98827.84;;;21.59;32.49
72950;BME280;64868;45.710;9.590;2023-04-19T09:09:32;98822.41;;;22.33;31.26
72950;BME280;64868;45.710;9.590;2023-04-19T09:12:03;98846.81;;;22.53;31.37
72950;BME280;64868;45.710;9.590;2023-04-19T09:14:48;98841.06;;;21.72;32.26
72950;BME280;64868;45.710;9.590;2023-04-19T09:17:20;98835.16;;;21.37;33.28
72950;BME280;64868;45.710;9.590;2023-04-19T09:19:52;98845.00;;;22.16;31.66
72950;BME280;64868;45.710;9.590;2023-04-19T09:22:25;98842.78;;;21.35;31.63
72950;BME280;64868;45.710;9.590;2023-04-19T09:24:55;98800.81;;;21.76;30.81
72950;BME280;64868;45.710;9.590;2023-04-19T09:27:28;98812.00;;;21.22;33.06
72950;BME280;64868;45.710;9.590;2023-04-19T09:30:00;98807.97;;;20.00;35.34
72950;BME280;64868;45.710;9.590;2023-04-19T09:32:47;98826.59;;;21.16;32.95
72950;BME280;64868;45.710;9.590;2023-04-19T09:35:20;98753.09;;;20.97;32.56
72950;BME280;64868;45.710;9.590;2023-04-19T09:38:01;98787.53;;;20.80;34.37
72950;BME280;64868;45.710;9.590;2023-04-19T09:40:31;98787.81;;;22.06;32.64
72950;BME280;64868;45.710;9.590;2023-04-19T09:43:01;98802.66;;;22.58;31.83
72950;BME280;64868;45.710;9.590;2023-04-19T09:45:41;98797.66;;;21.42;32.38
72950;BME280;64868;45.710;9.590;2023-04-19T09:48:12;98772.00;;;21.40;33.38
72950;BME280;64868;45.710;9.590;2023-04-19T09:51:00;98759.72;;;20.96;33.65
72950;BME280;64868;45.710;9.590;2023-04-19T09:53:33;98801.59;;;21.01;33.07
72950;BME280;64868;45.710;9.590;2023-04-19T09:56:06;98794.19;;;21.40;32.90
72950;BME280;64868;45.710;9.590;2023-04-19T09:58:41;98736.03;;;22.28;31.55
72950;BME280;64868;45.710;9.590;2023-04-19T10:01:09;98757.53;;;22.41;31.65
72950;BME280;64868;45.710;9.590;2023-04-19T10:03:39;98787.41;;;21.95;32.65
72950;BME280;64868;45.710;9.590;2023-04-19T10:06:09;98741.72;;;22.42;31.01
72950;BME280;64868;45.710;9.590;2023-04-19T10:08:42;98752.03;;;22.99;30.69
72950;BME280;64868;45.710;9.590;2023-04-19T10:11:14;98780.41;;;21.69;32.84
72950;BME280;64868;45.710;9.590;2023-04-19T10:13:47;98759.34;;;21.60;33.46
72950;BME280;64868;45.710;9.590;2023-04-19T10:16:20;98787.31;;;22.03;32.16
72950;BME280;64868;45.710;9.590;2023-04-19T10:18:53;98759.34;;;22.04;32.10
72950;BME280;64868;45.710;9.590;2023-04-19T10:21:28;98759.75;;;22.31;31.29
72950;BME280;64868;45.710;9.590;2023-04-19T10:24:01;98735.03;;;22.72;30.41
72950;BME280;64868;45.710;9.590;2023-04-19T10:29:54;98767.78;;;24.54;27.72
72950;BME280;64868;45.710;9.590;2023-04-19T10:32:24;98760.13;;;24.27;28.48
72950;BME280;64868;45.710;9.590;2023-04-19T10:34:53;98702.66;;;22.43;30.14
72950;BME280;64868;45.710;9.590;2023-04-19T10:37:27;98737.34;;;22.47;31.26
72950;BME280;64868;45.710;9.590;2023-04-19T10:39:57;98697.41;;;23.41;29.31
72950;BME280;64868;45.710;9.590;2023-04-19T10:45:34;98672.28;;;22.20;31.13
72950;BME280;64868;45.710;9.590;2023-04-19T10:48:04;98650.16;;;21.97;31.86
72950;BME280;64868;45.710;9.590;2023-04-19T10:53:53;98721.31;;;23.57;29.74
72950;BME280;64868;45.710;9.590;2023-04-19T10:57:02;98725.53;;;22.81;30.19
72950;BME280;64868;45.710;9.590;2023-04-19T10:59:34;98701.50;;;23.38;29.84
72950;BME280;64868;45.710;9.590;2023-04-19T11:02:25;98700.41;;;23.95;29.36
72950;BME280;64868;45.710;9.590;2023-04-19T11:07:27;98629.53;;;24.04;28.39
72950;BME280;64868;45.710;9.590;2023-04-19T11:10:00;98685.81;;;22.66;30.65
72950;BME280;64868;45.710;9.590;2023-04-19T11:12:32;98640.78;;;22.34;31.08
72950;BME280;64868;45.710;9.590;2023-04-19T11:15:04;98635.97;;;22.07;31.30
72950;BME280;64868;45.710;9.590;2023-04-19T11:17:35;98645.69;;;22.75;30.90
72950;BME280;64868;45.710;9.590;2023-04-19T11:20:10;98671.84;;;23.02;30.28
72950;BME280;64868;45.710;9.590;2023-04-19T11:22:44;98661.34;;;22.55;30.84
72950;BME280;64868;45.710;9.590;2023-04-19T11:25:14;98653.69;;;22.21;31.97
72950;BME280;64868;45.710;9.590;2023-04-19T11:27:50;98650.06;;;22.05;31.82
72950;BME280;64868;45.710;9.590;2023-04-19T11:30:21;98647.25;;;23.27;30.36
72950;BME280;64868;45.710;9.590;2023-04-19T11:32:57;98658.59;;;22.83;30.91
72950;BME280;64868;45.710;9.590;2023-04-19T11:35:27;98597.88;;;22.37;31.09
72950;BME280;64868;45.710;9.590;2023-04-19T11:38:00;98626.63;;;23.15;31.00
72950;BME280;64868;45.710;9.590;2023-04-19T11:40:33;98615.81;;;24.03;28.60
72950;BME280;64868;45.710;9.590;2023-04-19T11:43:03;98619.69;;;23.33;29.25
72950;BME280;64868;45.710;9.590;2023-04-19T11:45:36;98620.38;;;23.69;29.36
72950;BME280;64868;45.710;9.590;2023-04-19T11:48:04;98599.16;;;23.34;30.48
72950;BME280;64868;45.710;9.590;2023-04-19T11:50:37;98593.53;;;23.62;29.46
72950;BME280;64868;45.710;9.590;2023-04-19T11:53:33;98601.28;;;23.31;30.03
72950;BME280;64868;45.710;9.590;2023-04-19T11:56:06;98600.03;;;23.41;29.42
72950;BME280;64868;45.710;9.590;2023-04-19T11:58:39;98583.97;;;24.25;29.66
72950;BME280;64868;45.710;9.590;2023-04-19T12:01:16;98562.69;;;23.63;29.57
72950;BME280;64868;45.710;9.590;2023-04-19T12:03:54;98601.84;;;23.20;30.42
72950;BME280;64868;45.710;9.590;2023-04-19T12:06:31;98594.56;;;22.48;31.59
72950;BME280;64868;45.710;9.590;2023-04-19T12:09:07;98558.38;;;22.63;31.71
72950;BME280;64868;45.710;9.590;2023-04-19T12:11:47;98572.53;;;21.89;32.22
72950;BME280;64868;45.710;9.590;2023-04-19T12:14:22;98561.53;;;23.10;30.61
72950;BME280;64868;45.710;9.590;2023-04-19T12:17:09;98550.97;;;23.26;30.60
72950;BME280;64868;45.710;9.590;2023-04-19T12:19:48;98554.03;;;23.03;31.43
72950;BME280;64868;45.710;9.590;2023-04-19T12:22:21;98560.22;;;23.05;30.08
72950;BME280;64868;45.710;9.590;2023-04-19T12:24:57;98554.88;;;23.04;29.95
72950;BME280;64868;45.710;9.590;2023-04-19T12:27:29;98555.16;;;22.88;29.80
72950;BME280;64868;45.710;9.590;2023-04-19T12:30:00;98520.66;;;23.38;28.87
72950;BME280;64868;45.710;9.590;2023-04-19T12:32:30;98535.78;;;23.70;28.30
72950;BME280;64868;45.710;9.590;2023-04-19T12:35:02;98559.06;;;24.11;28.07
72950;BME280;64868;45.710;9.590;2023-04-19T12:37:35;98518.94;;;23.44;28.85
72950;BME280;64868;45.710;9.590;2023-04-19T12:40:06;98541.84;;;23.81;29.31
72950;BME280;64868;45.710;9.590;2023-04-19T12:42:36;98538.38;;;24.53;27.84
72950;BME280;64868;45.710;9.590;2023-04-19T12:45:07;98488.09;;;23.80;29.04
72950;BME280;64868;45.710;9.590;2023-04-19T12:47:35;98524.75;;;24.03;27.61
72950;BME280;64868;45.710;9.590;2023-04-19T12:50:03;98491.00;;;23.65;27.44
72950;BME280;64868;45.710;9.590;2023-04-19T12:52:36;98529.53;;;24.30;28.27
72950;BME280;64868;45.710;9.590;2023-04-19T12:55:04;98489.03;;;24.87;27.38
72950;BME280;64868;45.710;9.590;2023-04-19T12:57:35;98513.03;;;25.14;26.69
72950;BME280;64868;45.710;9.590;2023-04-19T13:00:08;98507.94;;;24.45;27.77
72950;BME280;64868;45.710;9.590;2023-04-19T13:02:38;98509.22;;;24.56;27.81
72950;BME280;64868;45.710;9.590;2023-04-19T13:05:07;98458.56;;;24.12;27.88
72950;BME280;64868;45.710;9.590;2023-04-19T13:07:39;98497.88;;;24.44;27.51
72950;BME280;64868;45.710;9.590;2023-04-19T13:10:08;98505.09;;;24.18;27.68
72950;BME280;64868;45.710;9.590;2023-04-19T13:12:39;98477.84;;;24.20;27.89
72950;BME280;64868;45.710;9.590;2023-04-19T13:15:09;98468.66;;;24.20;27.65
72950;BME280;64868;45.710;9.590;2023-04-19T13:17:42;98442.34;;;24.49;27.49
72950;BME280;64868;45.710;9.590;2023-04-19T13:20:10;98472.91;;;25.09;26.55
72950;BME280;64868;45.710;9.590;2023-04-19T13:22:40;98447.41;;;24.92;26.61
72950;BME280;64868;45.710;9.590;2023-04-19T13:25:13;98471.66;;;24.85;27.10
72950;BME280;64868;45.710;9.590;2023-04-19T13:27:46;98428.59;;;24.61;27.94
72950;BME280;64868;45.710;9.590;2023-04-19T13:30:19;98418.50;;;23.25;29.30
72950;BME280;64868;45.710;9.590;2023-04-19T13:32:49;98457.69;;;23.30;30.60
72950;BME280;64868;45.710;9.590;2023-04-19T13:35:21;98443.53;;;23.19;30.46
72950;BME280;64868;45.710;9.590;2023-04-19T13:37:54;98433.44;;;23.18;30.67